createdAt,value
2019-03-22T00:00:15.877Z,1027.38
2019-03-22T00:01:15.956Z,1027.31
2019-03-22T00:02:15.992Z,1027.34
2019-03-22T00:03:16.272Z,1027.32
2019-03-22T00:04:16.050Z,1027.37
2019-03-22T00:05:16.039Z,1027.35
2019-03-22T00:06:16.068Z,1027.35
2019-03-22T00:08:16.275Z,1027.35
2019-03-22T00:09:16.227Z,1027.31
2019-03-22T00:10:16.491Z,1027.35
2019-03-22T00:11:16.278Z,1027.32
2019-03-22T00:12:16.261Z,1027.38
2019-03-22T00:13:16.296Z,1027.38
2019-03-22T00:14:16.477Z,1027.40
2019-03-22T00:15:16.407Z,1027.39
2019-03-22T00:16:16.401Z,1027.46
2019-03-22T00:17:16.723Z,1027.41
2019-03-22T00:18:16.503Z,1027.39
2019-03-22T00:19:16.482Z,1027.36
2019-03-22T00:20:16.560Z,1027.40
2019-03-22T00:21:16.546Z,1027.37
2019-03-22T00:22:16.579Z,1027.39
2019-03-22T00:23:16.607Z,1027.40
2019-03-22T00:24:16.945Z,1027.40
2019-03-22T00:25:16.719Z,1027.40
2019-03-22T00:26:16.704Z,1027.39
2019-03-22T00:27:17.001Z,1027.41
2019-03-22T00:28:16.770Z,1027.35
2019-03-22T00:29:16.799Z,1027.42
2019-03-22T00:30:16.829Z,1027.39
2019-03-22T00:31:17.216Z,1027.42
2019-03-22T00:32:16.897Z,1027.41
2019-03-22T00:33:16.982Z,1027.42
2019-03-22T00:34:17.010Z,1027.41
2019-03-22T00:35:17.042Z,1027.40
2019-03-22T00:36:17.075Z,1027.39
2019-03-22T00:37:17.060Z,1027.33
2019-03-22T00:38:17.444Z,1027.34
2019-03-22T00:39:17.120Z,1027.37
2019-03-22T00:40:17.305Z,1027.29
2019-03-22T00:41:17.251Z,1027.35
2019-03-22T00:42:17.213Z,1027.33
2019-03-22T00:43:17.294Z,1027.34
2019-03-22T00:44:17.379Z,1027.36
2019-03-22T00:45:17.616Z,1027.34
2019-03-22T00:46:17.342Z,1027.37
2019-03-22T00:48:17.456Z,1027.36
2019-03-22T00:49:17.448Z,1027.32
2019-03-22T00:50:17.528Z,1027.33
2019-03-22T00:51:17.555Z,1027.32
2019-03-22T00:52:17.887Z,1027.30
2019-03-22T00:54:17.959Z,1027.32
2019-03-22T00:55:17.682Z,1027.34
2019-03-22T00:56:17.709Z,1027.37
2019-03-22T00:58:17.785Z,1027.34
2019-03-22T01:00:18.090Z,1027.35
2019-03-22T01:01:17.870Z,1027.32
2019-03-22T01:02:17.852Z,1027.32
2019-03-22T01:03:17.943Z,1027.29
2019-03-22T01:04:17.971Z,1027.29
2019-03-22T01:05:18.004Z,1027.30
2019-03-22T01:06:18.028Z,1027.29
2019-03-22T01:07:18.470Z,1027.29
2019-03-22T01:08:18.190Z,1027.28
2019-03-22T01:09:18.077Z,1027.24
2019-03-22T01:10:18.264Z,1027.28
2019-03-22T01:11:18.142Z,1027.26
2019-03-22T01:12:18.224Z,1027.24
2019-03-22T01:13:18.199Z,1027.27
2019-03-22T01:14:18.238Z,1027.28
2019-03-22T01:15:18.267Z,1027.22
2019-03-22T01:16:18.343Z,1027.23
2019-03-22T01:17:18.331Z,1027.23
2019-03-22T01:18:18.362Z,1027.19
2019-03-22T01:19:18.439Z,1027.17
2019-03-22T01:20:18.730Z,1027.14
2019-03-22T01:21:18.508Z,1027.10
2019-03-22T01:22:18.494Z,1027.14
2019-03-22T01:23:18.518Z,1027.13
2019-03-22T01:24:18.553Z,1027.10
2019-03-22T01:25:18.580Z,1027.07
2019-03-22T01:26:19.023Z,1027.09
2019-03-22T01:27:18.702Z,1027.10
2019-03-22T01:28:18.729Z,1027.10
2019-03-22T01:29:18.762Z,1027.16
2019-03-22T01:30:18.901Z,1027.13
2019-03-22T01:31:18.830Z,1027.14
2019-03-22T01:32:19.119Z,1027.14
2019-03-22T01:33:18.988Z,1027.14
2019-03-22T01:34:18.873Z,1027.18
2019-03-22T01:35:18.909Z,1027.12
2019-03-22T01:36:18.934Z,1027.14
2019-03-22T01:37:19.016Z,1027.15
2019-03-22T01:38:19.304Z,1027.14
2019-03-22T01:39:19.084Z,1027.11
2019-03-22T01:40:19.112Z,1027.11
2019-03-22T01:41:19.092Z,1027.11
2019-03-22T01:42:19.131Z,1027.11
2019-03-22T01:43:19.157Z,1027.11
2019-03-22T01:44:19.231Z,1027.12
2019-03-22T01:45:19.616Z,1027.16
2019-03-22T01:46:19.256Z,1027.12
2019-03-22T01:47:19.331Z,1027.14
2019-03-22T01:48:19.373Z,1027.16
2019-03-22T01:49:19.397Z,1027.11
2019-03-22T01:50:19.380Z,1027.11
2019-03-22T01:51:19.468Z,1027.14
2019-03-22T01:52:19.816Z,1027.09
2019-03-22T01:53:19.477Z,1027.13
2019-03-22T01:54:19.502Z,1027.09
2019-03-22T01:55:19.588Z,1027.09
2019-03-22T01:56:19.568Z,1027.09
2019-03-22T01:57:19.659Z,1027.10
2019-03-22T01:58:19.629Z,1027.11
2019-03-22T01:59:20.016Z,1027.14
2019-03-22T02:00:19.688Z,1027.15
2019-03-22T02:01:19.870Z,1027.19
2019-03-22T02:02:19.751Z,1027.17
2019-03-22T02:03:19.801Z,1027.17
2019-03-22T02:05:19.899Z,1027.14
2019-03-22T02:06:20.179Z,1027.13
2019-03-22T02:07:19.919Z,1027.12
2019-03-22T02:08:19.941Z,1027.09
2019-03-22T02:09:20.030Z,1027.11
2019-03-22T02:10:20.018Z,1027.12
2019-03-22T02:11:20.091Z,1027.09
2019-03-22T02:12:20.122Z,1027.09
2019-03-22T02:13:20.948Z,1027.05
2019-03-22T02:14:20.143Z,1027.10
2019-03-22T02:15:20.174Z,1027.13
2019-03-22T02:16:20.552Z,1027.09
2019-03-22T02:17:20.283Z,1027.06
2019-03-22T02:18:20.261Z,1027.06
2019-03-22T02:20:20.471Z,1027.05
2019-03-22T02:21:20.808Z,1027.04
2019-03-22T02:22:20.458Z,1027.02
2019-03-22T02:23:20.514Z,1027.03
2019-03-22T02:25:20.482Z,1027.04
2019-03-22T02:26:20.561Z,1027.01
2019-03-22T02:27:20.599Z,1027.02
2019-03-22T02:28:20.927Z,1027.06
2019-03-22T02:29:20.609Z,1027.04
2019-03-22T02:30:20.704Z,1026.99
2019-03-22T02:31:20.724Z,1026.99
2019-03-22T02:32:20.700Z,1027.00
2019-03-22T02:33:20.776Z,1027.01
2019-03-22T02:34:20.829Z,1027.00
2019-03-22T02:35:28.835Z,1027.02
2019-03-22T02:36:20.882Z,1026.98
2019-03-22T02:37:20.858Z,1027.01
2019-03-22T02:38:20.939Z,1026.98
2019-03-22T02:40:20.961Z,1026.92
2019-03-22T02:41:20.989Z,1026.93
2019-03-22T02:42:21.371Z,1026.89
2019-03-22T02:43:21.099Z,1026.92
2019-03-22T02:44:21.081Z,1026.89
2019-03-22T02:45:21.112Z,1026.88
2019-03-22T02:46:21.191Z,1026.85
2019-03-22T02:47:21.222Z,1026.86
2019-03-22T02:48:21.210Z,1026.85
2019-03-22T02:49:21.533Z,1026.84
2019-03-22T02:50:21.404Z,1026.83
2019-03-22T02:51:21.302Z,1026.85
2019-03-22T02:52:21.383Z,1026.83
2019-03-22T02:53:21.373Z,1026.85
2019-03-22T02:54:21.452Z,1026.85
2019-03-22T02:55:21.580Z,1026.84
2019-03-22T02:56:21.866Z,1026.84
2019-03-22T02:57:21.495Z,1026.88
2019-03-22T02:58:21.592Z,1026.88
2019-03-22T02:59:21.551Z,1026.85
2019-03-22T03:00:21.633Z,1026.87
2019-03-22T03:01:21.617Z,1026.84
2019-03-22T03:02:21.717Z,1026.82
2019-03-22T03:03:22.035Z,1026.83
2019-03-22T03:04:21.711Z,1026.83
2019-03-22T03:05:21.742Z,1026.84
2019-03-22T03:06:21.794Z,1026.84
2019-03-22T03:07:21.871Z,1026.84
2019-03-22T03:08:21.889Z,1026.86
2019-03-22T03:09:21.923Z,1026.83
2019-03-22T03:10:22.302Z,1026.84
2019-03-22T03:11:22.277Z,1026.84
2019-03-22T03:12:22.011Z,1026.83
2019-03-22T03:13:21.994Z,1026.82
2019-03-22T03:14:22.026Z,1026.82
2019-03-22T03:15:22.107Z,1026.83
2019-03-22T03:17:22.474Z,1026.81
2019-03-22T03:18:22.155Z,1026.79
2019-03-22T03:19:22.240Z,1026.82
2019-03-22T03:21:22.293Z,1026.80
2019-03-22T03:22:22.326Z,1026.82
2019-03-22T03:24:22.412Z,1026.83
2019-03-22T03:25:22.673Z,1026.82
2019-03-22T03:26:22.458Z,1026.78
2019-03-22T03:27:22.480Z,1026.78
2019-03-22T03:28:36.072Z,1026.80
2019-03-22T03:29:22.502Z,1026.74
2019-03-22T03:30:22.530Z,1026.72
2019-03-22T03:31:22.611Z,1026.69
2019-03-22T03:32:22.896Z,1026.73
2019-03-22T03:33:22.631Z,1026.72
2019-03-22T03:34:22.656Z,1026.72
2019-03-22T03:35:22.838Z,1026.73
2019-03-22T03:36:22.726Z,1026.75
2019-03-22T03:37:22.806Z,1026.74
2019-03-22T03:38:22.780Z,1026.72
2019-03-22T03:40:23.139Z,1026.69
2019-03-22T03:42:22.954Z,1026.64
2019-03-22T03:43:22.995Z,1026.61
2019-03-22T03:44:23.024Z,1026.63
2019-03-22T03:45:23.152Z,1026.63
2019-03-22T03:47:23.115Z,1026.70
2019-03-22T03:48:23.396Z,1026.74
2019-03-22T03:49:23.127Z,1026.73
2019-03-22T03:50:23.158Z,1026.74
2019-03-22T03:51:23.233Z,1026.76
2019-03-22T03:52:23.213Z,1026.78
2019-03-22T03:53:23.996Z,1026.77
2019-03-22T03:54:23.287Z,1026.77
2019-03-22T03:55:23.620Z,1026.76
2019-03-22T03:56:23.395Z,1026.75
2019-03-22T03:57:23.380Z,1026.74
2019-03-22T03:58:23.462Z,1026.76
2019-03-22T03:59:23.493Z,1026.73
2019-03-22T04:00:23.520Z,1026.75
2019-03-22T04:01:23.562Z,1026.73
2019-03-22T04:02:23.834Z,1026.69
2019-03-22T04:03:23.610Z,1026.72
2019-03-22T04:04:23.647Z,1026.73
2019-03-22T04:05:23.670Z,1026.72
2019-03-22T04:06:23.730Z,1026.74
2019-03-22T04:07:23.761Z,1026.70
2019-03-22T04:08:23.781Z,1026.72
2019-03-22T04:10:24.085Z,1026.68
2019-03-22T04:11:23.863Z,1026.72
2019-03-22T04:12:23.992Z,1026.67
2019-03-22T04:13:24.034Z,1026.68
2019-03-22T04:14:23.957Z,1026.70
2019-03-22T04:15:23.937Z,1026.71
2019-03-22T04:16:24.073Z,1026.75
2019-03-22T04:17:24.383Z,1026.77
2019-03-22T04:19:24.068Z,1026.81
2019-03-22T04:20:24.100Z,1026.83
2019-03-22T04:21:24.129Z,1026.80
2019-03-22T04:22:24.158Z,1026.81
2019-03-22T04:23:24.192Z,1026.80
2019-03-22T04:24:24.675Z,1026.79
2019-03-22T04:25:24.285Z,1026.76
2019-03-22T04:26:24.336Z,1026.78
2019-03-22T04:27:24.366Z,1026.74
2019-03-22T04:28:24.352Z,1026.72
2019-03-22T04:29:24.423Z,1026.75
2019-03-22T04:31:24.490Z,1026.73
2019-03-22T04:32:24.877Z,1026.73
2019-03-22T04:33:24.506Z,1026.74
2019-03-22T04:35:24.610Z,1026.79
2019-03-22T04:36:25.015Z,1026.77
2019-03-22T04:37:24.630Z,1026.78
2019-03-22T04:38:24.712Z,1026.79
2019-03-22T04:39:24.990Z,1026.76
2019-03-22T04:40:24.765Z,1026.80
2019-03-22T04:41:24.747Z,1026.74
2019-03-22T04:42:24.783Z,1026.75
2019-03-22T04:43:24.823Z,1026.75
2019-03-22T04:44:24.847Z,1026.74
2019-03-22T04:46:25.054Z,1026.78
2019-03-22T04:47:25.292Z,1026.77
2019-03-22T04:48:25.025Z,1026.78
2019-03-22T04:49:25.008Z,1026.77
2019-03-22T04:50:25.028Z,1026.78
2019-03-22T04:52:25.146Z,1026.81
2019-03-22T04:53:25.879Z,1026.79
2019-03-22T04:54:25.511Z,1026.80
2019-03-22T04:55:25.248Z,1026.82
2019-03-22T04:56:25.228Z,1026.77
2019-03-22T04:57:25.304Z,1026.82
2019-03-22T04:58:25.288Z,1026.79
2019-03-22T04:59:25.362Z,1026.79
2019-03-22T05:00:25.346Z,1026.80
2019-03-22T05:01:25.688Z,1026.78
2019-03-22T05:03:25.492Z,1026.75
2019-03-22T05:04:25.627Z,1026.76
2019-03-22T05:05:25.549Z,1026.76
2019-03-22T05:06:25.543Z,1026.74
2019-03-22T05:07:25.689Z,1026.70
2019-03-22T05:08:25.946Z,1026.72
2019-03-22T05:09:25.627Z,1026.72
2019-03-22T05:10:25.658Z,1026.75
2019-03-22T05:11:25.739Z,1026.71
2019-03-22T05:12:25.766Z,1026.73
2019-03-22T05:13:25.753Z,1026.71
2019-03-22T05:14:25.933Z,1026.68
2019-03-22T05:15:26.164Z,1026.70
2019-03-22T05:16:25.840Z,1026.67
2019-03-22T05:18:25.960Z,1026.67
2019-03-22T05:19:25.940Z,1026.73
2019-03-22T05:20:26.023Z,1026.73
2019-03-22T05:21:25.996Z,1026.73
2019-03-22T05:22:26.336Z,1026.73
2019-03-22T05:23:26.109Z,1026.77
2019-03-22T05:24:26.097Z,1026.79
2019-03-22T05:25:26.121Z,1026.77
2019-03-22T05:26:26.207Z,1026.79
2019-03-22T05:27:26.350Z,1026.77
2019-03-22T05:28:26.276Z,1026.75
2019-03-22T05:29:30.849Z,1026.80
2019-03-22T05:30:26.277Z,1026.77
2019-03-22T05:31:26.314Z,1026.73
2019-03-22T05:32:26.399Z,1026.76
2019-03-22T05:33:26.429Z,1026.74
2019-03-22T05:34:26.402Z,1026.72
2019-03-22T05:35:26.489Z,1026.68
2019-03-22T05:36:26.768Z,1026.71
2019-03-22T05:37:26.553Z,1026.71
2019-03-22T05:38:26.535Z,1026.69
2019-03-22T05:39:26.631Z,1026.72
2019-03-22T05:40:26.641Z,1026.70
2019-03-22T05:41:26.678Z,1026.67
2019-03-22T05:42:26.703Z,1026.65
2019-03-22T05:43:27.054Z,1026.61
2019-03-22T05:44:26.722Z,1026.62
2019-03-22T05:45:26.799Z,1026.57
2019-03-22T05:46:26.783Z,1026.56
2019-03-22T05:47:26.814Z,1026.59
2019-03-22T05:48:26.996Z,1026.58
2019-03-22T05:49:26.884Z,1026.60
2019-03-22T05:50:27.205Z,1026.62
2019-03-22T05:51:28.590Z,1026.61
2019-03-22T05:52:27.015Z,1026.63
2019-03-22T05:53:27.049Z,1026.63
2019-03-22T05:54:27.031Z,1026.64
2019-03-22T05:55:27.111Z,1026.65
2019-03-22T05:56:27.138Z,1026.63
2019-03-22T05:57:27.437Z,1026.69
2019-03-22T05:58:27.304Z,1026.65
2019-03-22T05:59:27.230Z,1026.68
2019-03-22T06:00:27.217Z,1026.71
2019-03-22T06:02:27.273Z,1026.70
2019-03-22T06:03:27.363Z,1026.72
2019-03-22T06:04:27.690Z,1026.72
2019-03-22T06:05:27.421Z,1026.77
2019-03-22T06:06:27.449Z,1026.75
2019-03-22T06:07:27.487Z,1026.78
2019-03-22T06:08:27.516Z,1026.81
2019-03-22T06:09:27.641Z,1026.80
2019-03-22T06:10:27.531Z,1026.80
2019-03-22T06:11:27.953Z,1026.83
2019-03-22T06:12:27.584Z,1026.84
2019-03-22T06:14:27.704Z,1026.87
2019-03-22T06:15:27.682Z,1026.88
2019-03-22T06:16:27.715Z,1026.90
2019-03-22T06:17:28.060Z,1026.88
2019-03-22T06:18:27.830Z,1026.84
2019-03-22T06:20:27.889Z,1026.93
2019-03-22T06:21:27.867Z,1026.87
2019-03-22T06:22:27.900Z,1026.91
2019-03-22T06:23:28.279Z,1026.93
2019-03-22T06:24:27.958Z,1026.90
2019-03-22T06:25:28.044Z,1026.89
2019-03-22T06:26:28.028Z,1026.89
2019-03-22T06:27:28.107Z,1026.88
2019-03-22T06:28:28.086Z,1026.87
2019-03-22T06:29:28.469Z,1026.85
2019-03-22T06:30:28.843Z,1026.85
2019-03-22T06:31:28.236Z,1026.84
2019-03-22T06:32:28.215Z,1026.83
2019-03-22T06:33:28.249Z,1026.83
2019-03-22T06:34:28.325Z,1026.83
2019-03-22T06:35:28.316Z,1026.81
2019-03-22T06:36:28.695Z,1026.85
2019-03-22T06:37:28.374Z,1026.82
2019-03-22T06:38:28.401Z,1026.84
2019-03-22T06:39:28.438Z,1026.86
2019-03-22T06:40:28.508Z,1026.87
2019-03-22T06:41:28.552Z,1026.88
2019-03-22T06:42:28.528Z,1026.87
2019-03-22T06:43:28.906Z,1026.87
2019-03-22T06:44:28.583Z,1026.90
2019-03-22T06:45:28.667Z,1026.92
2019-03-22T06:46:28.646Z,1026.93
2019-03-22T06:47:28.679Z,1026.95
2019-03-22T06:48:28.761Z,1026.95
2019-03-22T06:50:28.822Z,1026.99
2019-03-22T06:51:29.162Z,1027.01
2019-03-22T06:52:28.900Z,1026.98
2019-03-22T06:53:29.614Z,1026.99
2019-03-22T06:54:31.945Z,1027.04
2019-03-22T06:55:28.985Z,1027.03
2019-03-22T06:56:29.020Z,1027.03
2019-03-22T06:57:28.996Z,1027.02
2019-03-22T06:58:29.334Z,1027.04
2019-03-22T06:59:29.050Z,1027.07
2019-03-22T07:00:29.100Z,1027.07
2019-03-22T07:03:29.237Z,1027.10
2019-03-22T07:04:29.270Z,1027.11
2019-03-22T07:05:29.305Z,1027.13
2019-03-22T07:06:29.275Z,1027.16
2019-03-22T07:07:29.305Z,1027.12
2019-03-22T07:08:29.386Z,1027.10
2019-03-22T07:10:29.450Z,1027.13
2019-03-22T07:11:29.730Z,1027.10
2019-03-22T07:12:29.516Z,1027.12
2019-03-22T07:13:29.543Z,1027.15
2019-03-22T07:14:29.583Z,1027.13
2019-03-22T07:15:29.556Z,1027.13
2019-03-22T07:16:29.592Z,1027.15
2019-03-22T07:17:29.770Z,1027.12
2019-03-22T07:18:29.709Z,1027.13
2019-03-22T07:19:29.734Z,1027.15
2019-03-22T07:20:29.806Z,1027.17
2019-03-22T07:21:29.745Z,1027.16
2019-03-22T07:22:29.826Z,1027.20
2019-03-22T07:23:29.861Z,1027.19
2019-03-22T07:25:29.918Z,1027.19
2019-03-22T07:26:30.246Z,1027.19
2019-03-22T07:27:29.988Z,1027.25
2019-03-22T07:28:29.972Z,1027.20
2019-03-22T07:29:29.994Z,1027.26
2019-03-22T07:30:30.079Z,1027.33
2019-03-22T07:31:30.412Z,1027.33
2019-03-22T07:32:30.096Z,1027.33
2019-03-22T07:33:30.123Z,1027.34
2019-03-22T07:34:30.198Z,1027.37
2019-03-22T07:35:30.234Z,1027.32
2019-03-22T07:36:30.267Z,1027.31
2019-03-22T07:37:30.547Z,1027.32
2019-03-22T07:38:30.283Z,1027.30
2019-03-22T07:39:30.355Z,1027.28
2019-03-22T07:40:30.391Z,1027.28
2019-03-22T07:41:30.373Z,1027.27
2019-03-22T07:42:30.396Z,1027.29
2019-03-22T07:43:30.732Z,1027.25
2019-03-22T07:44:30.515Z,1027.25
2019-03-22T07:45:30.542Z,1027.25
2019-03-22T07:46:30.531Z,1027.22
2019-03-22T07:47:30.716Z,1027.21
2019-03-22T07:48:30.605Z,1027.22
2019-03-22T07:49:31.077Z,1027.17
2019-03-22T07:50:30.659Z,1027.18
2019-03-22T07:51:30.730Z,1027.15
2019-03-22T07:52:30.715Z,1027.16
2019-03-22T07:53:30.743Z,1027.19
2019-03-22T07:54:30.832Z,1027.14
2019-03-22T07:55:30.857Z,1027.14
2019-03-22T07:56:30.855Z,1027.12
2019-03-22T07:57:30.874Z,1027.17
2019-03-22T07:58:30.905Z,1027.14
2019-03-22T07:59:30.985Z,1027.12
2019-03-22T08:00:31.359Z,1027.10
2019-03-22T08:01:31.003Z,1027.09
2019-03-22T08:02:31.376Z,1027.13
2019-03-22T08:03:31.065Z,1027.17
2019-03-22T08:04:31.139Z,1027.12
2019-03-22T08:05:31.169Z,1027.15
2019-03-22T08:06:31.503Z,1027.21
2019-03-22T08:07:31.235Z,1027.19
2019-03-22T08:08:31.217Z,1027.19
2019-03-22T08:09:31.312Z,1027.22
2019-03-22T08:10:31.328Z,1027.25
2019-03-22T08:11:31.341Z,1027.26
2019-03-22T08:12:31.349Z,1027.26
2019-03-22T08:13:31.379Z,1027.27
2019-03-22T08:14:31.409Z,1027.30
2019-03-22T08:15:31.794Z,1027.27
2019-03-22T08:16:31.525Z,1027.28
2019-03-22T08:17:31.503Z,1027.24
2019-03-22T08:18:31.539Z,1027.24
2019-03-22T08:19:31.620Z,1027.25
2019-03-22T08:20:31.644Z,1027.21
2019-03-22T08:21:31.675Z,1027.19
2019-03-22T08:22:32.014Z,1027.21
2019-03-22T08:23:31.747Z,1027.20
2019-03-22T08:24:31.724Z,1027.19
2019-03-22T08:25:32.591Z,1027.18
2019-03-22T08:26:31.878Z,1027.15
2019-03-22T08:27:31.879Z,1027.16
2019-03-22T08:28:31.852Z,1027.20
2019-03-22T08:29:32.295Z,1027.16
2019-03-22T08:30:42.538Z,1027.15
2019-03-22T08:31:31.992Z,1027.14
2019-03-22T08:32:32.025Z,1027.16
2019-03-22T08:33:32.048Z,1027.15
2019-03-22T08:34:32.036Z,1027.19
2019-03-22T08:35:32.096Z,1027.16
2019-03-22T08:37:32.203Z,1027.15
2019-03-22T08:38:32.202Z,1027.14
2019-03-22T08:39:32.284Z,1027.13
2019-03-22T08:41:32.259Z,1027.08
2019-03-22T08:42:32.642Z,1027.12
2019-03-22T08:44:32.505Z,1027.07
2019-03-22T08:45:32.402Z,1027.08
2019-03-22T08:46:32.500Z,1027.12
2019-03-22T08:47:34.347Z,1027.07
2019-03-22T08:48:32.538Z,1027.05
2019-03-22T08:49:32.750Z,1027.09
2019-03-22T08:50:32.599Z,1027.05
2019-03-22T08:51:32.627Z,1027.08
2019-03-22T08:52:32.665Z,1027.03
2019-03-22T08:54:32.775Z,1027.07
2019-03-22T08:55:33.059Z,1027.03
2019-03-22T08:56:35.838Z,1027.00
2019-03-22T08:57:32.833Z,1027.00
2019-03-22T08:58:32.844Z,1027.03
2019-03-22T08:59:32.883Z,1027.01
2019-03-22T09:00:39.042Z,1027.00
2019-03-22T09:01:33.229Z,1027.02
2019-03-22T09:02:32.987Z,1027.02
2019-03-22T09:03:33.315Z,1027.05
2019-03-22T09:04:32.996Z,1027.04
2019-03-22T09:05:33.043Z,1027.03
2019-03-22T09:06:33.109Z,1026.99
2019-03-22T09:07:33.164Z,1027.01
2019-03-22T09:08:33.487Z,1026.98
2019-03-22T09:09:41.506Z,1027.00
2019-03-22T09:10:33.281Z,1026.96
2019-03-22T09:11:33.336Z,1027.00
2019-03-22T09:12:33.292Z,1027.00
2019-03-22T09:13:33.293Z,1026.99
2019-03-22T09:14:33.412Z,1026.96
2019-03-22T09:15:40.950Z,1026.97
2019-03-22T09:16:33.375Z,1026.91
2019-03-22T09:17:33.410Z,1026.93
2019-03-22T09:18:33.467Z,1026.95
2019-03-22T09:19:33.564Z,1026.90
2019-03-22T09:20:33.572Z,1026.93
2019-03-22T09:22:33.614Z,1026.85
2019-03-22T09:23:33.649Z,1026.87
2019-03-22T09:24:39.001Z,1026.86
2019-03-22T09:25:33.695Z,1026.84
2019-03-22T09:27:36.445Z,1026.82
2019-03-22T09:28:34.058Z,1026.81
2019-03-22T09:29:33.838Z,1026.77
2019-03-22T09:30:33.819Z,1026.75
2019-03-22T09:31:33.898Z,1026.71
2019-03-22T09:32:33.932Z,1026.74
2019-03-22T09:33:33.911Z,1026.74
2019-03-22T09:34:34.347Z,1026.71
2019-03-22T09:36:34.401Z,1026.68
2019-03-22T09:37:34.045Z,1026.65
2019-03-22T09:38:34.191Z,1026.66
2019-03-22T09:39:34.160Z,1026.61
2019-03-22T09:40:34.210Z,1026.66
2019-03-22T09:41:34.175Z,1026.63
2019-03-22T09:42:34.253Z,1026.62
2019-03-22T09:43:34.605Z,1026.61
2019-03-22T09:44:43.150Z,1026.59
2019-03-22T09:45:34.303Z,1026.58
2019-03-22T09:46:34.353Z,1026.58
2019-03-22T09:47:34.411Z,1026.58
2019-03-22T09:48:34.388Z,1026.60
2019-03-22T09:49:34.438Z,1026.58
2019-03-22T09:50:34.812Z,1026.57
2019-03-22T09:51:34.635Z,1026.58
2019-03-22T09:52:34.520Z,1026.58
2019-03-22T09:53:34.611Z,1026.54
2019-03-22T09:54:34.583Z,1026.54
2019-03-22T09:55:34.670Z,1026.54
2019-03-22T09:56:46.365Z,1026.54
2019-03-22T09:57:34.681Z,1026.52
2019-03-22T09:58:34.768Z,1026.51
2019-03-22T09:59:34.804Z,1026.48
2019-03-22T10:00:35.170Z,1026.46
2019-03-22T10:01:34.820Z,1026.45
2019-03-22T10:02:34.845Z,1026.49
2019-03-22T10:03:35.236Z,1026.43
2019-03-22T10:04:35.067Z,1026.44
2019-03-22T10:05:34.984Z,1026.38
2019-03-22T10:06:35.019Z,1026.39
2019-03-22T10:07:35.079Z,1026.37
2019-03-22T10:08:35.034Z,1026.36
2019-03-22T10:09:35.423Z,1026.35
2019-03-22T10:10:35.096Z,1026.31
2019-03-22T10:11:35.149Z,1026.36
2019-03-22T10:12:35.205Z,1026.28
2019-03-22T10:13:35.257Z,1026.29
2019-03-22T10:14:35.297Z,1026.29
2019-03-22T10:15:35.558Z,1026.28
2019-03-22T10:16:35.343Z,1026.26
2019-03-22T10:17:35.337Z,1026.24
2019-03-22T10:18:36.849Z,1026.23
2019-03-22T10:19:35.491Z,1026.21
2019-03-22T10:20:35.426Z,1026.21
2019-03-22T10:21:35.806Z,1026.20
2019-03-22T10:22:35.486Z,1026.24
2019-03-22T10:23:35.629Z,1026.20
2019-03-22T10:24:35.549Z,1026.15
2019-03-22T10:25:35.633Z,1026.15
2019-03-22T10:26:35.615Z,1026.13
2019-03-22T10:27:35.694Z,1026.13
2019-03-22T10:28:36.057Z,1026.12
2019-03-22T10:29:35.731Z,1026.08
2019-03-22T10:30:35.796Z,1026.07
2019-03-22T10:31:37.520Z,1026.05
2019-03-22T10:32:35.813Z,1026.03
2019-03-22T10:33:35.843Z,1026.02
2019-03-22T10:34:35.952Z,1026.04
2019-03-22T10:35:36.321Z,1026.03
2019-03-22T10:36:36.043Z,1026.02
2019-03-22T10:37:35.970Z,1026.02
2019-03-22T10:38:36.000Z,1026.01
2019-03-22T10:39:36.082Z,1026.01
2019-03-22T10:40:36.121Z,1026.01
2019-03-22T10:41:36.122Z,1025.98
2019-03-22T10:42:36.498Z,1025.91
2019-03-22T10:43:36.412Z,1025.95
2019-03-22T10:44:39.289Z,1025.87
2019-03-22T10:45:36.283Z,1025.87
2019-03-22T10:46:36.264Z,1025.88
2019-03-22T10:47:36.339Z,1025.88
2019-03-22T10:48:36.371Z,1025.79
2019-03-22T10:49:36.655Z,1025.81
2019-03-22T10:50:36.465Z,1025.81
2019-03-22T10:51:36.424Z,1025.79
2019-03-22T10:52:36.516Z,1025.80
2019-03-22T10:53:36.532Z,1025.77
2019-03-22T10:54:36.590Z,1025.77
2019-03-22T10:56:36.637Z,1025.77
2019-03-22T10:57:40.112Z,1025.74
2019-03-22T10:58:36.648Z,1025.73
2019-03-22T10:59:36.737Z,1025.71
2019-03-22T11:00:36.766Z,1025.73
2019-03-22T11:01:46.798Z,1025.70
2019-03-22T11:02:36.924Z,1025.70
2019-03-22T11:03:37.274Z,1025.68
2019-03-22T11:04:36.899Z,1025.69
2019-03-22T11:05:36.901Z,1025.67
2019-03-22T11:06:36.964Z,1025.67
2019-03-22T11:07:37.000Z,1025.66
2019-03-22T11:08:36.979Z,1025.63
2019-03-22T11:09:37.075Z,1025.64
2019-03-22T11:10:37.054Z,1025.61
2019-03-22T11:11:37.140Z,1025.63
2019-03-22T11:12:37.158Z,1025.59
2019-03-22T11:13:37.191Z,1025.62
2019-03-22T11:14:37.172Z,1025.59
2019-03-22T11:15:37.257Z,1025.60
2019-03-22T11:16:37.538Z,1025.59
2019-03-22T11:17:37.327Z,1025.58
2019-03-22T11:18:37.815Z,1025.55
2019-03-22T11:19:37.390Z,1025.57
2019-03-22T11:20:37.395Z,1025.55
2019-03-22T11:21:37.405Z,1025.54
2019-03-22T11:22:37.781Z,1025.50
2019-03-22T11:23:37.523Z,1025.49
2019-03-22T11:24:37.542Z,1025.53
2019-03-22T11:25:37.584Z,1025.49
2019-03-22T11:26:37.615Z,1025.46
2019-03-22T11:27:37.639Z,1025.46
2019-03-22T11:29:37.675Z,1025.46
2019-03-22T11:30:37.742Z,1025.44
2019-03-22T11:31:40.196Z,1025.42
2019-03-22T11:32:37.799Z,1025.44
2019-03-22T11:33:37.787Z,1025.43
2019-03-22T11:34:38.185Z,1025.40
2019-03-22T11:35:37.927Z,1025.38
2019-03-22T11:36:37.881Z,1025.35
2019-03-22T11:37:37.980Z,1025.35
2019-03-22T11:38:37.948Z,1025.34
2019-03-22T11:39:38.032Z,1025.34
2019-03-22T11:40:38.064Z,1025.32
2019-03-22T11:41:38.424Z,1025.29
2019-03-22T11:42:38.082Z,1025.30
2019-03-22T11:43:38.173Z,1025.27
2019-03-22T11:44:38.165Z,1025.27
2019-03-22T11:45:38.189Z,1025.24
2019-03-22T11:46:38.262Z,1025.29
2019-03-22T11:47:38.244Z,1025.21
2019-03-22T11:48:38.578Z,1025.24
2019-03-22T11:49:38.304Z,1025.21
2019-03-22T11:50:38.405Z,1025.18
2019-03-22T11:51:40.179Z,1025.17
2019-03-22T11:52:38.462Z,1025.16
2019-03-22T11:53:38.494Z,1025.16
2019-03-22T11:54:38.481Z,1025.15
2019-03-22T11:55:38.576Z,1025.15
2019-03-22T11:56:38.599Z,1025.14
2019-03-22T11:57:38.721Z,1025.12
2019-03-22T11:59:38.684Z,1025.08
2019-03-22T12:00:38.723Z,1025.04
2019-03-22T12:01:38.698Z,1025.02
2019-03-22T12:02:38.730Z,1024.99
2019-03-22T12:03:38.818Z,1024.99
2019-03-22T12:04:38.852Z,1024.97
2019-03-22T12:05:40.523Z,1024.97
2019-03-22T12:06:38.922Z,1024.97
2019-03-22T12:07:39.386Z,1024.95
2019-03-22T12:08:39.082Z,1024.93
2019-03-22T12:09:39.017Z,1024.89
2019-03-22T12:10:38.992Z,1024.88
2019-03-22T12:11:39.042Z,1024.89
2019-03-22T12:12:39.108Z,1024.87
2019-03-22T12:14:39.485Z,1024.82
2019-03-22T12:15:39.207Z,1024.82
2019-03-22T12:16:39.346Z,1024.79
2019-03-22T12:17:39.224Z,1024.80
2019-03-22T12:18:39.414Z,1024.77
2019-03-22T12:19:39.347Z,1024.80
2019-03-22T12:20:39.675Z,1024.81
2019-03-22T12:21:39.355Z,1024.77
2019-03-22T12:22:39.385Z,1024.80
2019-03-22T12:23:39.467Z,1024.74
2019-03-22T12:24:39.507Z,1024.71
2019-03-22T12:25:39.487Z,1024.67
2019-03-22T12:26:39.519Z,1024.61
2019-03-22T12:27:39.604Z,1024.62
2019-03-22T12:28:39.638Z,1024.60
2019-03-22T12:29:39.973Z,1024.53
2019-03-22T12:30:39.701Z,1024.55
2019-03-22T12:31:39.741Z,1024.49
2019-03-22T12:32:40.020Z,1024.48
2019-03-22T12:33:39.751Z,1024.49
2019-03-22T12:34:39.837Z,1024.43
2019-03-22T12:35:39.866Z,1024.45
2019-03-22T12:36:39.851Z,1024.40
2019-03-22T12:37:39.886Z,1024.41
2019-03-22T12:38:39.919Z,1024.39
2019-03-22T12:39:41.885Z,1024.35
2019-03-22T12:40:39.985Z,1024.33
2019-03-22T12:41:40.015Z,1024.31
2019-03-22T12:42:40.048Z,1024.29
2019-03-22T12:43:40.134Z,1024.26
2019-03-22T12:45:40.194Z,1024.25
2019-03-22T12:46:40.518Z,1024.26
2019-03-22T12:47:40.210Z,1024.27
2019-03-22T12:48:40.324Z,1024.22